createdAt,value
2023-03-29T00:02:03.156Z,0.70
2023-03-29T00:04:29.807Z,0.70
2023-03-29T00:06:56.809Z,0.88
2023-03-29T00:09:26.532Z,0.82
2023-03-29T00:11:53.147Z,1.10
2023-03-29T00:14:19.954Z,1.33
2023-03-29T00:16:47.035Z,1.67
2023-03-29T00:19:13.704Z,1.30
2023-03-29T00:21:40.858Z,1.33
2023-03-29T00:24:07.523Z,1.00
2023-03-29T00:26:34.085Z,1.05
2023-03-29T00:29:00.597Z,0.80
2023-03-29T00:31:27.401Z,1.15
2023-03-29T00:33:54.049Z,1.05
2023-03-29T00:36:22.150Z,1.20
2023-03-29T00:38:48.909Z,0.85
2023-03-29T00:41:15.642Z,1.35
2023-03-29T00:44:02.814Z,1.50
2023-03-29T00:46:31.271Z,1.08
2023-03-29T00:49:05.274Z,1.20
2023-03-29T00:51:36.620Z,1.10
2023-03-29T00:54:10.484Z,1.45
2023-03-29T00:56:39.838Z,1.13
2023-03-29T00:59:16.182Z,1.17
2023-03-29T01:01:46.993Z,1.27
2023-03-29T01:04:42.663Z,1.43
2023-03-29T01:07:21.334Z,1.38
2023-03-29T01:09:58.985Z,1.30
2023-03-29T01:12:31.076Z,0.80
2023-03-29T01:15:03.485Z,0.52
2023-03-29T01:17:31.677Z,0.52
2023-03-29T01:20:10.772Z,0.60
2023-03-29T01:23:21.289Z,0.43
2023-03-29T01:25:54.059Z,0.30
2023-03-29T01:28:29.749Z,0.60
2023-03-29T01:31:03.804Z,0.60
2023-03-29T01:33:37.540Z,0.50
2023-03-29T01:36:17.356Z,0.68
2023-03-29T01:38:51.645Z,0.50
2023-03-29T01:41:18.408Z,0.57
2023-03-29T01:43:56.480Z,0.50
2023-03-29T01:46:36.665Z,0.60
2023-03-29T01:49:11.195Z,0.50
2023-03-29T01:51:43.299Z,0.65
2023-03-29T01:54:18.598Z,0.50
2023-03-29T01:56:49.261Z,0.32
2023-03-29T01:59:22.189Z,0.60
2023-03-29T02:01:52.895Z,0.50
2023-03-29T02:04:31.636Z,0.80
2023-03-29T02:07:00.686Z,0.70
2023-03-29T02:09:28.792Z,0.90
2023-03-29T02:11:59.154Z,0.70
2023-03-29T02:14:26.519Z,0.80
2023-03-29T02:16:53.175Z,0.52
2023-03-29T02:19:21.777Z,0.70
2023-03-29T02:22:04.020Z,0.50
2023-03-29T02:24:32.355Z,1.00
2023-03-29T02:26:59.684Z,0.60
2023-03-29T02:29:26.361Z,0.60
2023-03-29T02:32:09.947Z,0.50
2023-03-29T02:34:47.739Z,0.50
2023-03-29T02:37:18.874Z,0.60
2023-03-29T02:39:49.766Z,0.75
2023-03-29T02:42:20.495Z,0.67
2023-03-29T02:44:52.068Z,1.42
2023-03-29T02:47:24.589Z,0.63
2023-03-29T02:49:51.390Z,0.63
2023-03-29T02:52:23.973Z,0.60
2023-03-29T02:54:54.430Z,0.60
2023-03-29T02:57:26.576Z,0.50
2023-03-29T02:59:56.925Z,0.80
2023-03-29T03:02:26.228Z,0.60
2023-03-29T03:04:54.079Z,0.57
2023-03-29T03:07:21.010Z,0.98
2023-03-29T03:09:47.885Z,0.60
2023-03-29T03:12:14.590Z,0.80
2023-03-29T03:14:41.130Z,0.95
2023-03-29T03:17:07.720Z,0.50
2023-03-29T03:19:34.298Z,0.70
2023-03-29T03:22:00.946Z,0.70
2023-03-29T03:24:28.169Z,1.65
2023-03-29T03:26:55.491Z,2.28
2023-03-29T03:29:22.075Z,1.95
2023-03-29T03:32:20.062Z,1.20
2023-03-29T03:35:07.507Z,1.13
2023-03-29T03:37:34.212Z,0.77
2023-03-29T03:40:03.522Z,1.05
2023-03-29T03:42:30.241Z,0.95
2023-03-29T03:44:58.523Z,0.88
2023-03-29T03:48:00.692Z,0.80
2023-03-29T03:50:40.327Z,0.65
2023-03-29T03:53:08.355Z,0.90
2023-03-29T03:55:56.019Z,0.80
2023-03-29T03:58:27.122Z,0.65
2023-03-29T04:00:54.982Z,0.82
2023-03-29T04:03:35.929Z,0.70
2023-03-29T04:06:04.067Z,1.52
2023-03-29T04:08:47.968Z,1.20
2023-03-29T04:11:32.067Z,0.80
2023-03-29T04:13:59.126Z,0.60
2023-03-29T04:16:33.337Z,1.30
2023-03-29T04:19:14.635Z,0.90
2023-03-29T04:21:42.847Z,1.52
2023-03-29T04:24:09.447Z,1.80
2023-03-29T04:26:39.188Z,1.58
2023-03-29T04:29:12.141Z,1.40
2023-03-29T04:31:46.927Z,1.48
2023-03-29T04:34:32.140Z,1.08
2023-03-29T04:36:59.471Z,1.20
2023-03-29T04:39:34.314Z,1.30
2023-03-29T04:42:05.264Z,1.08
2023-03-29T04:44:33.624Z,1.05
2023-03-29T04:47:01.627Z,1.00
2023-03-29T04:50:03.917Z,1.00
2023-03-29T04:52:38.655Z,0.65
2023-03-29T04:55:07.289Z,1.00
2023-03-29T04:57:51.206Z,0.90
2023-03-29T05:00:21.226Z,0.80
2023-03-29T05:03:07.477Z,1.00
2023-03-29T05:05:38.467Z,1.27
2023-03-29T05:08:06.326Z,1.58
2023-03-29T05:11:01.968Z,1.25
2023-03-29T05:13:29.058Z,1.50
2023-03-29T05:15:57.124Z,1.25
2023-03-29T05:18:25.262Z,1.45
2023-03-29T05:20:53.136Z,2.40
2023-03-29T05:23:21.223Z,2.28
2023-03-29T05:26:08.047Z,2.90
2023-03-29T05:28:35.181Z,3.13
2023-03-29T05:31:05.131Z,2.53
2023-03-29T05:33:36.738Z,3.40
2023-03-29T05:36:13.701Z,3.75
2023-03-29T05:38:46.569Z,3.70
2023-03-29T05:41:15.881Z,3.08
2023-03-29T05:44:08.533Z,2.85
2023-03-29T05:46:36.176Z,2.70
2023-03-29T05:49:04.173Z,2.88
2023-03-29T05:51:52.043Z,2.53
2023-03-29T05:54:18.799Z,2.50
2023-03-29T05:56:45.470Z,2.25
2023-03-29T05:59:13.732Z,2.40
2023-03-29T06:01:41.830Z,1.98
2023-03-29T06:04:10.791Z,2.13
2023-03-29T06:06:43.782Z,2.30
2023-03-29T06:09:11.072Z,3.10
2023-03-29T06:12:08.032Z,3.60
2023-03-29T06:15:03.343Z,3.20
2023-03-29T06:17:37.077Z,3.88
2023-03-29T06:20:08.979Z,3.03
2023-03-29T06:22:37.741Z,3.25
2023-03-29T06:25:06.125Z,3.63
2023-03-29T06:27:33.975Z,4.22
2023-03-29T06:30:01.694Z,3.40
2023-03-29T06:32:28.608Z,2.80
2023-03-29T06:35:04.783Z,2.33
2023-03-29T06:37:49.940Z,3.35
2023-03-29T06:40:28.332Z,4.15
2023-03-29T06:42:59.358Z,3.97
2023-03-29T06:45:41.557Z,3.58
2023-03-29T06:48:17.859Z,4.00
2023-03-29T06:50:44.678Z,3.55
2023-03-29T06:53:15.589Z,4.20
2023-03-29T06:55:44.127Z,6.13
2023-03-29T06:58:29.250Z,7.25
2023-03-29T07:01:02.561Z,6.38
2023-03-29T07:03:50.098Z,6.60
2023-03-29T07:06:22.618Z,6.18
2023-03-29T07:08:52.354Z,7.03
2023-03-29T07:11:37.458Z,6.80
2023-03-29T07:14:18.635Z,7.35
2023-03-29T07:16:47.340Z,6.00
2023-03-29T07:19:19.647Z,6.22
2023-03-29T07:22:11.333Z,5.18
2023-03-29T07:24:46.865Z,4.85
2023-03-29T07:27:13.533Z,4.70
2023-03-29T07:29:40.073Z,3.88
2023-03-29T07:32:07.220Z,4.75
2023-03-29T07:34:42.856Z,3.90
2023-03-29T07:37:16.510Z,4.22
2023-03-29T07:39:45.112Z,4.25
2023-03-29T07:42:29.185Z,4.10
2023-03-29T07:44:56.265Z,3.40
2023-03-29T07:47:23.546Z,2.63
2023-03-29T07:49:50.370Z,2.00
2023-03-29T07:52:17.392Z,2.17
2023-03-29T07:54:43.964Z,1.60
2023-03-29T07:57:24.587Z,1.77
2023-03-29T07:59:54.354Z,3.88
2023-03-29T08:02:27.707Z,4.00
2023-03-29T08:04:57.718Z,3.90
2023-03-29T08:07:24.821Z,3.17
2023-03-29T08:10:15.310Z,2.80
2023-03-29T08:12:58.380Z,1.95
2023-03-29T08:15:47.306Z,2.15
2023-03-29T08:18:24.061Z,2.08
2023-03-29T08:20:51.079Z,1.85
2023-03-29T08:23:17.734Z,1.10
2023-03-29T08:26:01.194Z,0.85
2023-03-29T08:28:28.219Z,0.93
2023-03-29T08:30:54.993Z,1.05
2023-03-29T08:33:22.300Z,0.80
2023-03-29T08:35:57.779Z,0.75
2023-03-29T08:38:29.113Z,0.85
2023-03-29T08:40:56.237Z,0.80
2023-03-29T08:43:48.182Z,0.90
2023-03-29T08:47:08.456Z,0.82
2023-03-29T08:49:43.946Z,0.95
2023-03-29T08:52:21.982Z,0.65
2023-03-29T08:54:52.143Z,0.77
2023-03-29T08:57:41.096Z,0.80
2023-03-29T09:00:32.225Z,0.77
2023-03-29T09:03:02.444Z,0.90
2023-03-29T09:05:43.119Z,0.70
2023-03-29T09:08:21.270Z,1.00
2023-03-29T09:11:23.892Z,0.73
2023-03-29T09:14:30.556Z,1.00
2023-03-29T09:17:19.357Z,0.73
2023-03-29T09:19:57.419Z,0.60
2023-03-29T09:22:27.831Z,0.70
2023-03-29T09:25:07.056Z,0.80
2023-03-29T09:27:46.038Z,0.65
2023-03-29T09:30:26.015Z,1.02
2023-03-29T09:33:07.828Z,1.08
2023-03-29T09:36:10.410Z,0.65
2023-03-29T09:38:42.344Z,0.90
2023-03-29T09:41:24.862Z,0.90
2023-03-29T09:43:52.985Z,0.60
2023-03-29T09:46:34.306Z,0.80
2023-03-29T09:49:02.869Z,0.88
2023-03-29T09:51:30.975Z,0.75
2023-03-29T09:54:00.151Z,0.60
2023-03-29T09:56:59.333Z,0.90
2023-03-29T09:59:26.265Z,0.80
2023-03-29T10:01:53.017Z,0.73
2023-03-29T10:04:21.433Z,0.90
2023-03-29T10:06:54.698Z,0.68
2023-03-29T10:09:24.676Z,0.70
2023-03-29T10:12:02.101Z,0.93
2023-03-29T10:14:41.256Z,0.80
2023-03-29T10:17:29.529Z,0.77
2023-03-29T10:19:58.299Z,0.90
2023-03-29T10:22:27.822Z,0.73
2023-03-29T10:24:57.130Z,0.70
2023-03-29T10:27:28.913Z,0.60
2023-03-29T10:29:58.451Z,0.60
2023-03-29T10:32:40.705Z,0.93
2023-03-29T10:35:18.258Z,0.70
2023-03-29T10:37:49.907Z,0.88
2023-03-29T10:40:33.746Z,0.75
2023-03-29T10:43:10.921Z,0.60
2023-03-29T10:45:38.584Z,0.85
2023-03-29T10:48:07.007Z,0.95
2023-03-29T10:50:36.984Z,0.55
2023-03-29T10:53:13.142Z,1.10
2023-03-29T10:56:27.974Z,0.70
2023-03-29T10:59:10.086Z,0.90
2023-03-29T11:02:15.369Z,0.80
2023-03-29T11:04:52.663Z,0.93
2023-03-29T11:07:33.449Z,1.10
2023-03-29T11:10:28.421Z,0.90
2023-03-29T11:13:33.038Z,0.70
2023-03-29T11:16:13.038Z,0.50
2023-03-29T11:18:48.573Z,0.70
2023-03-29T11:21:29.953Z,0.63
2023-03-29T11:24:03.532Z,0.75
2023-03-29T11:26:47.664Z,0.75
2023-03-29T11:29:27.141Z,0.82
2023-03-29T11:32:05.606Z,0.82
2023-03-29T11:34:45.017Z,0.70
2023-03-29T11:37:25.305Z,0.82
2023-03-29T11:40:15.302Z,0.60
2023-03-29T11:42:48.254Z,0.70
2023-03-29T11:45:27.320Z,0.47
2023-03-29T11:47:54.280Z,1.38
2023-03-29T11:50:34.185Z,0.70
2023-03-29T11:53:08.630Z,0.80
2023-03-29T11:55:38.779Z,0.88
2023-03-29T11:58:08.578Z,0.70
2023-03-29T12:00:49.011Z,1.00
2023-03-29T12:03:36.955Z,0.50
2023-03-29T12:06:22.467Z,0.60
2023-03-29T12:09:17.348Z,0.90
2023-03-29T12:11:56.149Z,0.60
2023-03-29T12:14:38.858Z,0.52
2023-03-29T12:17:11.781Z,0.52
2023-03-29T12:20:02.660Z,0.57
2023-03-29T12:22:29.396Z,0.85
2023-03-29T12:24:57.671Z,0.55
2023-03-29T12:27:42.464Z,0.90
2023-03-29T12:30:23.975Z,0.50
2023-03-29T12:33:00.901Z,0.80
2023-03-29T12:35:52.906Z,0.70
2023-03-29T12:38:44.758Z,0.50
2023-03-29T12:41:37.076Z,0.82
2023-03-29T12:44:46.887Z,0.85
2023-03-29T12:47:35.598Z,0.65
2023-03-29T12:50:04.557Z,0.60
2023-03-29T12:52:35.819Z,0.68
2023-03-29T12:55:23.195Z,0.68
2023-03-29T12:58:09.843Z,0.70
2023-03-29T13:00:36.381Z,0.73
2023-03-29T13:03:19.712Z,1.05
2023-03-29T13:05:47.055Z,0.60
2023-03-29T13:08:27.981Z,0.70
2023-03-29T13:10:56.231Z,0.65
2023-03-29T13:13:27.872Z,1.20
2023-03-29T13:15:55.077Z,0.63
2023-03-29T13:18:38.071Z,0.75
2023-03-29T13:21:16.173Z,0.70
2023-03-29T13:24:05.571Z,0.70
2023-03-29T13:26:56.952Z,1.00
2023-03-29T13:30:05.749Z,0.90
2023-03-29T13:32:47.320Z,0.77
2023-03-29T13:38:09.060Z,0.73
2023-03-29T13:40:38.949Z,0.60
2023-03-29T13:43:25.392Z,1.10
2023-03-29T13:45:58.036Z,0.70
2023-03-29T13:48:27.438Z,1.13
2023-03-29T13:51:02.129Z,1.00
2023-03-29T13:53:38.418Z,1.45
2023-03-29T13:56:10.519Z,0.75
2023-03-29T13:58:47.944Z,0.80
2023-03-29T14:01:24.594Z,1.23
2023-03-29T14:03:52.362Z,1.05
2023-03-29T14:06:26.625Z,1.55
2023-03-29T14:08:54.124Z,0.80
2023-03-29T14:11:28.765Z,1.10
2023-03-29T14:14:00.467Z,1.20
2023-03-29T14:16:35.237Z,0.93
2023-03-29T14:19:13.436Z,0.93
2023-03-29T14:21:41.425Z,0.95
2023-03-29T14:24:12.828Z,0.65
2023-03-29T14:29:11.099Z,1.17
2023-03-29T14:31:40.234Z,0.90
2023-03-29T14:34:18.362Z,1.00
2023-03-29T14:36:48.958Z,0.90
2023-03-29T14:39:21.793Z,1.35
2023-03-29T14:41:53.887Z,0.93
2023-03-29T14:44:26.009Z,0.70
2023-03-29T14:46:53.555Z,1.80
2023-03-29T14:49:24.617Z,1.20
2023-03-29T14:51:52.974Z,1.20
2023-03-29T14:54:22.678Z,1.38
2023-03-29T14:56:50.713Z,1.50
2023-03-29T14:59:29.770Z,1.00
2023-03-29T15:01:56.836Z,1.20
2023-03-29T15:04:23.972Z,0.98
2023-03-29T15:06:52.438Z,0.90
2023-03-29T15:09:34.019Z,1.02
2023-03-29T15:12:03.142Z,1.30
2023-03-29T15:14:34.037Z,1.45
2023-03-29T15:17:04.595Z,1.00
2023-03-29T15:19:32.424Z,1.10
2023-03-29T15:22:11.229Z,1.02
2023-03-29T15:24:47.416Z,1.27
2023-03-29T15:27:18.689Z,1.27
2023-03-29T15:29:47.355Z,1.80
2023-03-29T15:32:25.625Z,1.00
2023-03-29T15:35:00.480Z,1.30
2023-03-29T15:37:27.777Z,1.40
2023-03-29T15:39:54.690Z,1.10
2023-03-29T15:42:21.574Z,1.40
2023-03-29T15:44:48.435Z,1.38
2023-03-29T15:47:15.137Z,1.13
2023-03-29T15:49:41.917Z,1.10
2023-03-29T15:52:08.589Z,1.13
2023-03-29T15:54:37.100Z,0.98
2023-03-29T15:57:08.532Z,1.10
2023-03-29T15:59:36.344Z,2.17
2023-03-29T16:02:03.742Z,1.27
2023-03-29T16:04:30.426Z,0.90
2023-03-29T16:06:57.718Z,0.98
2023-03-29T16:09:25.711Z,1.55
2023-03-29T16:11:52.308Z,1.10
2023-03-29T16:14:27.314Z,0.80
2023-03-29T16:17:01.397Z,1.10
2023-03-29T16:19:29.998Z,1.30
2023-03-29T16:21:57.137Z,1.40
2023-03-29T16:24:26.329Z,1.20
2023-03-29T16:26:55.617Z,0.85
2023-03-29T16:29:24.584Z,1.17
2023-03-29T16:31:52.657Z,1.15
2023-03-29T16:34:20.067Z,0.93
2023-03-29T16:36:47.829Z,0.85
2023-03-29T16:39:14.768Z,1.10
2023-03-29T16:41:42.352Z,1.55
2023-03-29T16:44:15.289Z,1.05
2023-03-29T16:46:42.102Z,1.20
2023-03-29T16:49:13.950Z,0.80
2023-03-29T16:51:40.659Z,1.00
2023-03-29T16:54:07.393Z,1.33
2023-03-29T16:56:36.467Z,1.58
2023-03-29T16:59:03.699Z,1.20
2023-03-29T17:01:30.418Z,1.25
2023-03-29T17:03:57.298Z,1.45
2023-03-29T17:06:23.893Z,1.15
2023-03-29T17:08:50.651Z,1.77
2023-03-29T17:11:17.570Z,1.42
2023-03-29T17:13:44.530Z,1.40
2023-03-29T17:16:11.166Z,1.50
2023-03-29T17:18:37.887Z,1.42
2023-03-29T17:21:04.792Z,1.10
2023-03-29T17:23:31.354Z,1.13
2023-03-29T17:25:57.972Z,1.27
2023-03-29T17:28:24.695Z,1.00
2023-03-29T17:30:51.924Z,1.05
2023-03-29T17:33:22.421Z,1.20
2023-03-29T17:35:49.429Z,1.10
2023-03-29T17:38:16.037Z,1.80
2023-03-29T17:40:42.683Z,1.65
2023-03-29T17:43:09.316Z,4.10
2023-03-29T17:45:36.032Z,2.92
2023-03-29T17:48:05.553Z,2.83
2023-03-29T17:50:32.950Z,1.50
2023-03-29T17:52:59.559Z,1.77
2023-03-29T17:55:26.492Z,1.25
2023-03-29T17:57:53.164Z,1.73
2023-03-29T18:00:20.063Z,1.25
2023-03-29T18:05:13.368Z,1.40
2023-03-29T18:07:40.027Z,1.40
2023-03-29T18:10:08.216Z,1.25
2023-03-29T18:12:34.969Z,2.60
2023-03-29T18:15:01.725Z,2.92
2023-03-29T18:17:28.534Z,3.03
2023-03-29T18:19:55.294Z,6.75
2023-03-29T18:22:23.920Z,4.20
2023-03-29T18:24:50.984Z,5.82
2023-03-29T18:27:17.828Z,5.40
2023-03-29T18:29:44.804Z,3.30
2023-03-29T18:32:11.856Z,2.55
2023-03-29T18:34:39.401Z,2.13
2023-03-29T18:37:06.308Z,1.60
2023-03-29T18:39:34.654Z,8.10
2023-03-29T18:42:01.760Z,15.13
2023-03-29T18:44:28.766Z,15.75
2023-03-29T18:46:55.424Z,11.10
2023-03-29T18:49:22.035Z,6.00
2023-03-29T18:51:49.947Z,1.40
2023-03-29T18:54:17.127Z,1.77
2023-03-29T18:56:43.981Z,1.80
2023-03-29T18:59:11.428Z,1.40
2023-03-29T19:01:38.675Z,1.10
2023-03-29T19:04:06.189Z,2.00
2023-03-29T19:06:32.819Z,1.60
2023-03-29T19:09:01.970Z,1.52
2023-03-29T19:11:33.156Z,3.20
2023-03-29T19:14:00.014Z,2.13
2023-03-29T19:16:27.559Z,2.55
2023-03-29T19:18:54.284Z,2.78
2023-03-29T19:21:20.929Z,1.88
2023-03-29T19:23:47.630Z,2.40
2023-03-29T19:26:15.340Z,2.20
2023-03-29T19:28:42.050Z,2.05
2023-03-29T19:31:08.706Z,1.60
2023-03-29T19:33:35.461Z,1.70
2023-03-29T19:36:02.490Z,2.13
2023-03-29T19:38:29.300Z,1.50
2023-03-29T19:40:55.883Z,2.33
2023-03-29T19:43:22.505Z,2.67
2023-03-29T19:45:50.694Z,2.90
2023-03-29T19:48:23.490Z,2.25
2023-03-29T19:50:51.415Z,1.40
2023-03-29T19:53:18.133Z,1.80
2023-03-29T19:55:45.380Z,1.55
2023-03-29T19:58:12.918Z,1.52
2023-03-29T20:00:39.857Z,1.83
2023-03-29T20:03:10.564Z,1.70
2023-03-29T20:05:38.522Z,1.90
2023-03-29T20:08:05.356Z,1.58
2023-03-29T20:10:32.382Z,1.80
2023-03-29T20:12:59.263Z,1.40
2023-03-29T20:15:26.035Z,1.80
2023-03-29T20:17:55.328Z,2.00
2023-03-29T20:20:24.609Z,1.40
2023-03-29T20:22:54.001Z,1.50
2023-03-29T20:25:21.244Z,1.65
2023-03-29T20:27:49.621Z,1.67
2023-03-29T20:30:16.468Z,1.80
2023-03-29T20:32:43.181Z,2.72
2023-03-29T20:35:11.117Z,1.73
2023-03-29T20:37:37.647Z,2.00
2023-03-29T20:40:05.480Z,2.20
2023-03-29T20:42:34.434Z,1.80
2023-03-29T20:45:01.829Z,1.90
2023-03-29T20:47:29.509Z,2.13
2023-03-29T20:49:56.902Z,1.77
2023-03-29T20:52:24.722Z,2.40
2023-03-29T20:54:52.480Z,2.03
2023-03-29T20:57:20.893Z,2.10
2023-03-29T20:59:49.295Z,2.72
2023-03-29T21:02:21.510Z,2.00
2023-03-29T21:04:52.961Z,2.58
2023-03-29T21:07:21.353Z,3.00
2023-03-29T21:09:49.865Z,2.63
2023-03-29T21:12:17.454Z,2.75
2023-03-29T21:14:44.960Z,2.17
2023-03-29T21:17:11.608Z,1.80
2023-03-29T21:19:39.303Z,3.00
2023-03-29T21:22:05.972Z,3.42
2023-03-29T21:24:33.150Z,2.80
2023-03-29T21:26:59.990Z,2.00
2023-03-29T21:29:26.567Z,1.70
2023-03-29T21:31:53.230Z,1.50
2023-03-29T21:34:19.934Z,2.35
2023-03-29T21:36:46.553Z,3.97
2023-03-29T21:39:13.168Z,6.20
2023-03-29T21:41:39.737Z,5.88
2023-03-29T21:44:06.384Z,2.03
2023-03-29T21:46:33.106Z,1.98
2023-03-29T21:48:59.745Z,2.42
2023-03-29T21:51:27.000Z,2.88
2023-03-29T21:53:53.608Z,1.60
2023-03-29T21:56:20.326Z,1.73
2023-03-29T21:58:46.888Z,1.85
2023-03-29T22:01:13.448Z,2.50
2023-03-29T22:03:40.106Z,1.98
2023-03-29T22:06:09.346Z,2.17
2023-03-29T22:08:38.698Z,2.65
2023-03-29T22:11:08.472Z,2.78
2023-03-29T22:13:35.260Z,3.45
2023-03-29T22:16:03.873Z,2.90
2023-03-29T22:18:42.633Z,2.50
2023-03-29T22:21:15.130Z,3.25
2023-03-29T22:23:43.146Z,3.10
2023-03-29T22:26:12.087Z,3.70
2023-03-29T22:28:39.549Z,4.30
2023-03-29T22:31:09.201Z,2.38
2023-03-29T22:33:36.994Z,2.63
2023-03-29T22:36:21.945Z,2.78
2023-03-29T22:38:50.258Z,1.88
2023-03-29T22:41:18.596Z,1.60
2023-03-29T22:43:45.380Z,2.13
2023-03-29T22:46:13.971Z,2.30
2023-03-29T22:48:41.290Z,1.77
2023-03-29T22:51:07.839Z,2.38
2023-03-29T22:53:34.408Z,2.65
2023-03-29T22:56:01.293Z,1.45
2023-03-29T22:58:29.368Z,2.38
2023-03-29T23:00:57.116Z,2.35
2023-03-29T23:03:23.966Z,1.73
2023-03-29T23:05:51.925Z,3.08
2023-03-29T23:08:18.434Z,2.22
2023-03-29T23:10:48.226Z,1.95
2023-03-29T23:13:20.457Z,2.60
2023-03-29T23:15:48.868Z,2.17
2023-03-29T23:18:18.166Z,1.80
2023-03-29T23:20:47.178Z,2.60
2023-03-29T23:23:15.345Z,2.22
2023-03-29T23:25:46.546Z,1.95
2023-03-29T23:28:14.818Z,2.80
2023-03-29T23:30:41.603Z,2.60
2023-03-29T23:33:10.574Z,2.60
2023-03-29T23:35:37.490Z,3.20
2023-03-29T23:38:05.500Z,4.45
2023-03-29T23:40:33.137Z,3.42
2023-03-29T23:42:59.788Z,2.95
2023-03-29T23:45:27.907Z,3.53
2023-03-29T23:47:55.062Z,2.92
2023-03-29T23:50:22.603Z,2.28
2023-03-29T23:52:51.400Z,2.65
2023-03-29T23:55:18.018Z,1.90
2023-03-29T23:57:44.549Z,2.88
